Terminal Aerodrome Forecast
Issued by NWS

Home | Current Version | Previous Version | Graphics & Text | Print | Product List | Glossary On
Versions: 1 2 3 4 5 6 7 8 9 10 11 12 13 14 15
000
FTUS41 KCLE 040230 AAA
TAFFDY
TAF AMD
KFDY 040230Z 0403/0424 24007KT P6SM SCT045 BKN250
      TEMPO 0403/0405 5SM -TSRA BR OVC045CB
     FM040600 12004KT 6SM BR SCT120
      TEMPO 0406/0409 4SM BR
     FM040900 VRB02KT 4SM BR SCT003 BKN250
     FM041300 23005KT P6SM SCT250
     FM041800 24007KT P6SM VCTS BKN045CB=

USA.gov is the U.S. government's official web portal to all federal, state and local government web resources and services.